Time;durP1;ratioP1;P1;durP2;ratioP2;P2;SDS_P1;SDS_P2;PMS_P1;PMS_P2;Temp;Humidity;BMP_temperature;BMP_pressure;BME280_temperature;BME280_humidity;BME280_pressure;Samples;Min_cycle;Max_cycle;Signal;HPM_P1;HPM_P2
2022/08/13 00:01:40;;;;;;;1999.90;999.90;;;;;;;16.24;89.26;97847.63;4978219;28;20112;-75
2022/08/13 00:04:16;;;;;;;1999.90;999.90;;;;;;;16.26;88.96;97850.84;4979672;28;20556;-76
2022/08/13 00:09:10;;;;;;;1999.90;999.90;;;;;;;16.31;88.49;97848.72;4980746;28;20016;-77
2022/08/13 00:14:25;;;;;;;1999.90;999.90;;;;;;;16.34;87.01;97850.81;4981934;28;20411;-75
2022/08/13 00:16:52;;;;;;;1999.90;999.90;;;;;;;16.38;87.60;97848.19;4981280;28;20074;-74
2022/08/13 00:19:19;;;;;;;1999.90;999.90;;;;;;;16.35;87.69;97837.81;4982237;28;20484;-76
2022/08/13 00:21:46;;;;;;;1999.90;999.90;;;;;;;16.33;88.03;97834.56;4984496;28;20023;-76
2022/08/13 00:24:11;;;;;;;1999.90;999.90;;;;;;;16.22;88.25;97838.88;4980652;28;20122;-76
2022/08/13 00:26:36;;;;;;;1999.90;999.90;;;;;;;16.08;89.53;97828.88;4978140;28;20113;-75
2022/08/13 00:29:03;;;;;;;1999.90;999.90;;;;;;;15.98;91.09;97828.44;4979886;28;20022;-75
2022/08/13 00:31:28;;;;;;;1999.90;999.90;;;;;;;16.06;90.84;97833.13;4983937;28;20948;-75
2022/08/13 00:33:54;;;;;;;1999.90;999.90;;;;;;;16.00;91.94;97840.78;4990815;28;20121;-75
2022/08/13 00:36:21;;;;;;;1999.90;999.90;;;;;;;16.01;91.73;97836.88;4990986;28;20068;-75
2022/08/13 00:38:48;;;;;;;1999.90;999.90;;;;;;;15.97;92.51;97827.66;4995572;28;20031;-76
2022/08/13 00:41:37;;;;;;;1999.90;999.90;;;;;;;16.02;92.51;97823.88;4996807;28;20030;-76
2022/08/13 00:44:00;;;;;;;1999.90;999.90;;;;;;;15.81;95.55;97823.84;4996625;28;20073;-76
2022/08/13 00:46:26;;;;;;;1999.90;999.90;;;;;;;15.78;97.14;97818.19;4997602;28;20034;-76
2022/08/13 00:48:52;;;;;;;1999.90;999.90;;;;;;;15.61;100.00;97819.06;5001495;28;20554;-76
2022/08/13 00:51:20;;;;;;;1999.90;999.90;;;;;;;15.49;100.00;97811.50;5000719;28;20907;-77
2022/08/13 00:53:46;;;;;;;1999.90;999.90;;;;;;;15.45;100.00;97798.66;4995151;28;20022;-76
2022/08/13 00:56:12;;;;;;;1999.90;999.90;;;;;;;15.65;100.00;97803.47;4994819;28;20364;-75
2022/08/13 00:58:39;;;;;;;1999.90;999.90;;;;;;;15.80;99.74;97813.13;4994386;28;20471;-75
2022/08/13 01:01:05;;;;;;;1999.90;999.90;;;;;;;15.80;99.02;97815.91;4993453;28;20022;-76
2022/08/13 01:03:34;;;;;;;1999.90;999.90;;;;;;;15.70;99.68;97800.53;4994542;28;20031;-75
2022/08/13 01:06:00;;;;;;;1999.90;999.90;;;;;;;15.67;99.82;97806.72;4994282;28;20391;-76
2022/08/13 01:08:31;;;;;;;1999.90;999.90;;;;;;;15.76;99.27;97799.19;4994333;28;20031;-75
2022/08/13 01:11:01;;;;;;;1999.90;999.90;;;;;;;15.82;97.99;97803.38;4993002;28;20440;-76
2022/08/13 01:13:26;;;;;;;1999.90;999.90;;;;;;;15.78;97.48;97796.94;4994411;28;20026;-75
2022/08/13 01:15:52;;;;;;;1999.90;999.90;;;;;;;15.74;97.72;97790.47;4994555;28;20407;-75
2022/08/13 01:18:22;;;;;;;1999.90;999.90;;;;;;;15.89;96.92;97798.16;4993971;28;20061;-76
2022/08/13 01:20:50;;;;;;;1999.90;999.90;;;;;;;15.92;96.57;97796.66;4992913;28;20030;-76
2022/08/13 01:23:17;;;;;;;1999.90;999.90;;;;;;;15.85;96.90;97790.91;4992318;28;20130;-76
2022/08/13 01:25:44;;;;;;;1999.90;999.90;;;;;;;15.75;97.61;97796.78;4993859;28;20030;-76
2022/08/13 01:28:12;;;;;;;1999.90;999.90;;;;;;;15.73;98.02;97794.34;4994153;28;20144;-76
2022/08/13 01:30:44;;;;;;;1999.90;999.90;;;;;;;15.60;98.61;97795.38;4993895;28;20065;-76
2022/08/13 01:33:11;;;;;;;1999.90;999.90;;;;;;;15.61;98.79;97796.19;4992738;28;20392;-76
2022/08/13 01:35:37;;;;;;;1999.90;999.90;;;;;;;15.58;99.33;97792.16;4992606;28;20025;-76
2022/08/13 01:38:03;;;;;;;1999.90;999.90;;;;;;;15.54;100.00;97782.94;4992467;28;20041;-76
2022/08/13 01:40:30;;;;;;;1999.90;999.90;;;;;;;15.45;100.00;97790.41;4993676;28;20479;-76
2022/08/13 01:42:57;;;;;;;1999.90;999.90;;;;;;;15.36;100.00;97797.91;4991016;28;20045;-76
2022/08/13 01:45:23;;;;;;;1999.90;999.90;;;;;;;15.23;100.00;97790.63;4977291;28;20050;-76
2022/08/13 01:50:35;;;;;;;1999.90;999.90;;;;;;;15.15;100.00;97791.50;4992479;28;20074;-75
2022/08/13 01:53:07;;;;;;;1999.90;999.90;;;;;;;15.23;100.00;97782.38;4994144;28;20118;-76
2022/08/13 01:55:48;;;;;;;1999.90;999.90;;;;;;;15.31;100.00;97778.78;4991387;28;20042;-75
2022/08/13 01:58:22;;;;;;;1999.90;999.90;;;;;;;15.48;99.94;97779.56;4993610;28;20076;-74
2022/08/13 02:00:54;;;;;;;1999.90;999.90;;;;;;;15.47;99.53;97768.84;4993643;28;20380;-75
2022/08/13 02:03:20;;;;;;;1999.90;999.90;;;;;;;15.56;98.74;97771.56;4991786;28;20026;-74
2022/08/13 02:05:47;;;;;;;1999.90;999.90;;;;;;;15.67;96.89;97773.63;4993316;28;20545;-75
2022/08/13 02:08:14;;;;;;;1999.90;999.90;;;;;;;15.56;97.00;97768.81;4993377;28;20056;-74
2022/08/13 02:10:42;;;;;;;1999.90;999.90;;;;;;;15.65;97.85;97784.19;4992053;28;20100;-75
2022/08/13 02:13:14;;;;;;;1999.90;999.90;;;;;;;15.56;98.89;97780.66;4993004;28;20489;-74
2022/08/13 02:15:41;;;;;;;1999.90;999.90;;;;;;;15.41;100.00;97783.94;4994319;28;20089;-75
2022/08/13 02:18:07;;;;;;;1999.90;999.90;;;;;;;15.43;100.00;97781.66;4993258;28;20117;-75
2022/08/13 02:20:34;;;;;;;1999.90;999.90;;;;;;;15.59;99.64;97781.94;4997191;28;20018;-75
2022/08/13 02:23:01;;;;;;;1999.90;999.90;;;;;;;15.55;99.02;97781.78;5000995;28;20068;-76
2022/08/13 02:25:28;;;;;;;1999.90;999.90;;;;;;;15.56;99.29;97780.66;4993654;28;20538;-75
2022/08/13 02:27:55;;;;;;;1999.90;999.90;;;;;;;15.59;98.43;97787.47;4993000;28;20072;-74
2022/08/13 02:30:22;;;;;;;1999.90;999.90;;;;;;;15.35;100.00;97788.81;4992740;28;20031;-75
2022/08/13 02:32:49;;;;;;;1999.90;999.90;;;;;;;15.41;100.00;97786.72;4992810;28;20042;-74
2022/08/13 02:35:18;;;;;;;1999.90;999.90;;;;;;;15.40;100.00;97787.84;4992844;28;20026;-75
2022/08/13 02:37:44;;;;;;;1999.90;999.90;;;;;;;15.47;100.00;97785.38;4977529;28;20034;-75
2022/08/13 02:41:38;;;;;;;1999.90;999.90;;;;;;;15.47;100.00;97782.63;4982009;28;21242;-74
2022/08/13 02:42:59;;;;;;;1999.90;999.90;;;;;;;15.52;100.00;97787.97;4972864;28;20047;-76
2022/08/13 02:45:25;;;;;;;1999.90;999.90;;;;;;;15.42;100.00;97772.56;4973311;28;20042;-74
2022/08/13 02:47:51;;;;;;;1999.90;999.90;;;;;;;15.12;100.00;97779.19;4973247;28;20398;-75
2022/08/13 02:50:20;;;;;;;1999.90;999.90;;;;;;;15.08;100.00;97778.22;4972907;28;20043;-76
2022/08/13 02:52:48;;;;;;;1999.90;999.90;;;;;;;15.10;100.00;97775.16;4973191;28;20031;-76
2022/08/13 02:55:14;;;;;;;1999.90;999.90;;;;;;;15.35;100.00;97774.22;4971723;28;20128;-76
2022/08/13 02:57:39;;;;;;;1999.90;999.90;;;;;;;15.59;100.00;97781.94;4972799;28;20051;-75
2022/08/13 03:00:05;;;;;;;1999.90;999.90;;;;;;;15.54;100.00;97778.22;4972853;28;20034;-75
2022/08/13 03:02:44;;;;;;;1999.90;999.90;;;;;;;15.54;100.00;97780.16;4972492;28;20035;-76
2022/08/13 03:05:13;;;;;;;1999.90;999.90;;;;;;;15.64;100.00;97778.97;4971429;28;20387;-76
2022/08/13 03:07:41;;;;;;;1999.90;999.90;;;;;;;15.61;100.00;97779.66;4971755;28;20426;-75
2022/08/13 03:10:11;;;;;;;1999.90;999.90;;;;;;;15.47;100.00;97774.34;4979381;28;20034;-76
2022/08/13 03:12:39;;;;;;;1999.90;999.90;;;;;;;15.49;100.00;97772.09;4991997;28;20495;-76
2022/08/13 03:15:09;;;;;;;1999.90;999.90;;;;;;;15.57;100.00;97776.75;4990976;28;20092;-75
2022/08/13 03:17:34;;;;;;;1999.90;999.90;;;;;;;15.67;99.84;97778.31;4992575;28;20018;-75
2022/08/13 03:20:00;;;;;;;1999.90;999.90;;;;;;;15.68;99.23;97774.44;4990816;28;20053;-76
2022/08/13 03:22:25;;;;;;;1999.90;999.90;;;;;;;15.78;97.49;97774.06;4990433;28;20117;-75
2022/08/13 03:24:51;;;;;;;1999.90;999.90;;;;;;;15.75;97.26;97777.47;4991679;28;20031;-77
2022/08/13 03:27:16;;;;;;;1999.90;999.90;;;;;;;15.68;96.91;97771.66;4991984;28;20423;-76
2022/08/13 03:29:42;;;;;;;1999.90;999.90;;;;;;;15.70;96.85;97777.66;4991848;28;20026;-76
2022/08/13 03:32:07;;;;;;;1999.90;999.90;;;;;;;15.58;97.06;97770.09;4991835;28;20035;-76
2022/08/13 03:34:32;;;;;;;1999.90;999.90;;;;;;;15.45;98.15;97768.34;4991873;28;20506;-75
2022/08/13 03:36:58;;;;;;;1999.90;999.90;;;;;;;15.39;99.98;97777.94;4991435;28;20029;-76
2022/08/13 03:39:23;;;;;;;1999.90;999.90;;;;;;;15.34;100.00;97775.38;4991619;28;20482;-75
2022/08/13 03:41:48;;;;;;;1999.90;999.90;;;;;;;15.50;99.99;97768.19;4991520;28;20471;-75
2022/08/13 03:44:14;;;;;;;1999.90;999.90;;;;;;;15.50;100.00;97773.72;4991676;28;20478;-75
2022/08/13 03:46:39;;;;;;;1999.90;999.90;;;;;;;15.47;99.53;97775.16;4991939;28;20438;-76
2022/08/13 03:49:04;;;;;;;1999.90;999.90;;;;;;;15.46;99.46;97768.03;4991383;28;20585;-76
2022/08/13 03:51:30;;;;;;;1999.90;999.90;;;;;;;15.35;100.00;97771.47;4989793;28;20074;-76
2022/08/13 03:53:59;;;;;;;1999.90;999.90;;;;;;;15.40;100.00;97777.63;4991470;28;20038;-75
2022/08/13 03:56:24;;;;;;;1999.90;999.90;;;;;;;15.37;100.00;97774.72;4991225;28;20023;-75
2022/08/13 03:58:51;;;;;;;1999.90;999.90;;;;;;;15.34;100.00;97780.88;4991561;28;20042;-76
2022/08/13 04:01:17;;;;;;;1999.90;999.90;;;;;;;15.36;100.00;97770.34;4991974;28;20022;-77
2022/08/13 04:03:44;;;;;;;1999.90;999.90;;;;;;;15.42;99.85;97778.09;4992063;28;20034;-76
2022/08/13 04:06:16;;;;;;;1999.90;999.90;;;;;;;15.40;99.85;97771.28;4991827;28;20541;-76
2022/08/13 04:08:46;;;;;;;1999.90;999.90;;;;;;;15.45;99.99;97773.84;4991643;28;20027;-76
2022/08/13 04:11:14;;;;;;;1999.90;999.90;;;;;;;15.45;99.75;97779.38;4991360;28;20084;-74
2022/08/13 04:13:40;;;;;;;1999.90;999.90;;;;;;;15.49;99.53;97772.09;4994452;28;20030;-75
2022/08/13 04:16:18;;;;;;;1999.90;999.90;;;;;;;15.43;98.18;97773.38;4995624;28;20053;-76
2022/08/13 04:18:45;;;;;;;1999.90;999.90;;;;;;;15.45;98.87;97776.59;4995524;28;20398;-75
2022/08/13 04:21:14;;;;;;;1999.90;999.90;;;;;;;15.45;99.05;97771.09;4995297;28;20034;-75
2022/08/13 04:23:43;;;;;;;1999.90;999.90;;;;;;;15.59;98.82;97777.25;4995142;28;20038;-75
2022/08/13 04:26:11;;;;;;;1999.90;999.90;;;;;;;15.66;97.63;97777.53;4993895;28;20030;-75
2022/08/13 04:28:38;;;;;;;1999.90;999.90;;;;;;;15.65;97.21;97780.59;4995085;28;20471;-76
2022/08/13 04:31:05;;;;;;;1999.90;999.90;;;;;;;15.63;96.88;97782.91;4995186;28;20037;-75
2022/08/13 04:33:31;;;;;;;1999.90;999.90;;;;;;;15.65;97.96;97786.94;4995016;28;20593;-75
2022/08/13 04:35:56;;;;;;;1999.90;999.90;;;;;;;15.59;99.22;97785.50;4994868;28;20061;-75
2022/08/13 04:38:22;;;;;;;1999.90;999.90;;;;;;;15.50;98.31;97787.50;4995010;28;20062;-75
2022/08/13 04:40:48;;;;;;;1999.90;999.90;;;;;;;15.47;98.03;97783.44;4994775;28;20383;-75
2022/08/13 04:43:14;;;;;;;1999.90;999.90;;;;;;;15.52;96.97;97785.22;4994883;28;20038;-75
2022/08/13 04:45:41;;;;;;;1999.90;999.90;;;;;;;15.58;96.66;97786.63;4994876;28;20038;-75
2022/08/13 04:48:14;;;;;;;1999.90;999.90;;;;;;;15.67;96.23;97789.34;4995523;28;20034;-75
2022/08/13 04:50:44;;;;;;;1999.90;999.90;;;;;;;15.56;96.44;97777.91;5001689;28;20514;-75
2022/08/13 04:53:24;;;;;;;1999.90;999.90;;;;;;;15.44;97.48;97780.53;5004070;28;20045;-75
2022/08/13 04:55:50;;;;;;;1999.90;999.90;;;;;;;15.51;96.78;97775.31;4995917;28;20049;-76
2022/08/13 04:58:16;;;;;;;1999.90;999.90;;;;;;;15.46;97.30;97772.72;4994499;28;20489;-75
2022/08/13 05:00:44;;;;;;;1999.90;999.90;;;;;;;15.57;96.52;97776.75;4994932;28;20030;-75
2022/08/13 05:03:20;;;;;;;1999.90;999.90;;;;;;;15.50;96.78;97777.28;4993395;28;20038;-75
2022/08/13 05:05:48;;;;;;;1999.90;999.90;;;;;;;15.52;96.80;97782.47;4994464;28;20387;-75
2022/08/13 05:08:15;;;;;;;1999.90;999.90;;;;;;;15.42;96.73;97771.75;4994495;28;20018;-75
2022/08/13 05:10:41;;;;;;;1999.90;999.90;;;;;;;15.59;96.35;97782.75;4992157;28;20057;-75
2022/08/13 05:13:27;;;;;;;1999.90;999.90;;;;;;;15.61;95.82;97783.22;4982037;28;20026;-75
2022/08/13 05:15:56;;;;;;;1999.90;999.90;;;;;;;15.78;94.75;97791.41;4994491;28;20026;-75
2022/08/13 05:18:23;;;;;;;1999.90;999.90;;;;;;;15.75;94.18;97789.31;4993178;28;20084;-75
2022/08/13 05:20:48;;;;;;;1999.90;999.90;;;;;;;15.82;94.13;97797.06;4993932;28;20029;-75
2022/08/13 05:23:14;;;;;;;1999.90;999.90;;;;;;;15.93;93.18;97799.13;4993548;28;20034;-75
2022/08/13 05:25:41;;;;;;;1999.90;999.90;;;;;;;15.92;92.77;97797.50;4993218;28;20487;-75
2022/08/13 05:28:08;;;;;;;1999.90;999.90;;;;;;;15.91;93.84;97798.63;4994549;28;20041;-70
2022/08/13 05:30:37;;;;;;;1999.90;999.90;;;;;;;15.86;94.87;97798.81;4994155;28;20030;-72
2022/08/13 05:33:17;;;;;;;1999.90;999.90;;;;;;;15.92;93.92;97804.94;4993908;28;20165;-73
2022/08/13 05:35:44;;;;;;;1999.90;999.90;;;;;;;15.80;94.65;97804.84;4993748;28;20030;-73
2022/08/13 05:38:10;;;;;;;1999.90;999.90;;;;;;;15.58;95.33;97797.66;4993900;28;20026;-75
2022/08/13 05:40:36;;;;;;;1999.90;999.90;;;;;;;15.55;95.28;97781.78;5003528;28;20098;-79
2022/08/13 05:43:02;;;;;;;1999.90;999.90;;;;;;;15.76;94.98;97798.38;4980727;28;20026;-72
2022/08/13 05:45:29;;;;;;;1999.90;999.90;;;;;;;15.75;94.44;97800.34;4993602;28;20391;-71
2022/08/13 05:47:54;;;;;;;1999.90;999.90;;;;;;;15.79;96.20;97798.53;4994437;28;20446;-72
2022/08/13 05:50:20;;;;;;;1999.90;999.90;;;;;;;15.82;96.09;97795.09;4994198;28;20027;-72
2022/08/13 05:52:45;;;;;;;1999.90;999.90;;;;;;;15.78;95.78;97802.44;4997861;28;20042;-72
2022/08/13 05:55:12;;;;;;;1999.90;999.90;;;;;;;15.76;96.92;97807.47;4998629;28;20034;-72
2022/08/13 05:57:39;;;;;;;1999.90;999.90;;;;;;;15.72;96.82;97809.31;4993493;28;20030;-72
2022/08/13 06:05:36;;;;;;;1999.90;999.90;;;;;;;15.69;95.83;97809.97;4989713;28;19928;-75
2022/08/13 06:08:03;;;;;;;1999.90;999.90;;;;;;;15.71;95.68;97813.19;4981527;28;20122;-71
2022/08/13 06:10:28;;;;;;;1999.90;999.90;;;;;;;15.88;94.38;97813.09;4987365;28;20092;-71
2022/08/13 06:12:54;;;;;;;1999.90;999.90;;;;;;;15.93;94.38;97821.19;4988265;28;20553;-72
2022/08/13 06:15:22;;;;;;;1999.90;999.90;;;;;;;15.99;94.48;97828.13;4983435;28;20037;-70
2022/08/13 06:17:50;;;;;;;1999.90;999.90;;;;;;;16.03;95.10;97834.59;4981106;28;20854;-70
2022/08/13 06:20:17;;;;;;;1999.90;999.90;;;;;;;16.18;94.92;97827.69;4980530;28;20114;-72
2022/08/13 06:22:45;;;;;;;1999.90;999.90;;;;;;;16.32;94.28;97819.16;4973347;28;20065;-74
2022/08/13 06:25:10;;;;;;;1999.90;999.90;;;;;;;16.62;91.72;97817.97;4982525;28;20185;-70
2022/08/13 06:27:36;;;;;;;1999.90;999.90;;;;;;;16.59;92.17;97810.34;4981807;28;20495;-71
2022/08/13 06:30:03;;;;;;;1999.90;999.90;;;;;;;16.70;90.51;97800.50;4982877;28;20027;-71
2022/08/13 06:32:31;;;;;;;1999.90;999.90;;;;;;;16.71;90.40;97809.59;4983459;28;20029;-71
2022/08/13 06:34:58;;;;;;;1999.90;999.90;;;;;;;16.64;91.41;97812.09;4981615;28;20021;-75
2022/08/13 06:37:26;;;;;;;1999.90;999.90;;;;;;;16.54;92.19;97816.88;4982294;28;20919;-73
2022/08/13 06:39:56;;;;;;;1999.90;999.90;;;;;;;16.73;91.28;97805.34;4982806;28;20018;-73
2022/08/13 06:42:22;;;;;;;1999.90;999.90;;;;;;;16.59;91.42;97802.06;4981462;28;20168;-73
2022/08/13 06:44:51;;;;;;;1999.90;999.90;;;;;;;16.53;91.05;97789.59;4983152;28;20033;-73
2022/08/13 06:47:16;;;;;;;1999.90;999.90;;;;;;;16.61;90.06;97802.53;4979537;28;20502;-77
2022/08/13 06:49:41;;;;;;;1999.90;999.90;;;;;;;16.50;90.53;97801.31;4987659;28;20031;-72
2022/08/13 06:52:07;;;;;;;1999.90;999.90;;;;;;;16.46;90.73;97816.91;4982262;28;20061;-74
2022/08/13 06:54:33;;;;;;;1999.90;999.90;;;;;;;16.39;90.98;97809.19;4980377;28;20026;-73
2022/08/13 06:56:59;;;;;;;1999.90;999.90;;;;;;;16.47;91.14;97822.13;4984965;28;20018;-74
2022/08/13 06:59:25;;;;;;;1999.90;999.90;;;;;;;16.52;91.21;97829.38;4986507;28;20014;-72
2022/08/13 07:01:59;;;;;;;1999.90;999.90;;;;;;;16.29;93.63;97833.63;4987932;28;20497;-71
2022/08/13 07:04:25;;;;;;;1999.90;999.90;;;;;;;16.32;94.51;97838.47;4981220;28;20022;-72
2022/08/13 07:06:52;;;;;;;1999.90;999.90;;;;;;;16.14;96.55;97837.75;4987586;28;20030;-73
2022/08/13 07:09:18;;;;;;;1999.90;999.90;;;;;;;16.15;96.36;97846.84;4986615;28;20073;-73
2022/08/13 07:11:44;;;;;;;1999.90;999.90;;;;;;;16.23;98.99;97849.56;4991126;28;20105;-74
2022/08/13 07:14:10;;;;;;;1999.90;999.90;;;;;;;16.06;100.00;97853.25;4990487;28;20113;-75
2022/08/13 07:16:36;;;;;;;1999.90;999.90;;;;;;;16.06;100.00;97857.97;4985546;28;20034;-74
2022/08/13 07:19:03;;;;;;;1999.90;999.90;;;;;;;16.01;100.00;97850.66;4986966;28;20037;-73
2022/08/13 07:21:30;;;;;;;1999.90;999.90;;;;;;;15.98;100.00;97867.06;4982002;28;20031;-74
2022/08/13 07:23:56;;;;;;;1999.90;999.90;;;;;;;15.92;100.00;97873.91;4978724;28;20657;-75
2022/08/13 07:26:27;;;;;;;1999.90;999.90;;;;;;;15.93;100.00;97873.59;4980250;28;20026;-75
2022/08/13 07:28:52;;;;;;;1999.90;999.90;;;;;;;15.83;100.00;97875.91;4981082;28;20015;-75
2022/08/13 07:31:30;;;;;;;1999.90;999.90;;;;;;;15.70;100.00;97886.03;4979996;28;20026;-74
2022/08/13 07:33:58;;;;;;;1999.90;999.90;;;;;;;15.62;100.00;97886.06;4982459;28;20026;-75
2022/08/13 07:36:29;;;;;;;1999.90;999.90;;;;;;;15.67;100.00;97878.41;4986801;28;20415;-76
2022/08/13 07:38:55;;;;;;;1999.90;999.90;;;;;;;15.57;100.00;97878.75;4980825;28;20438;-75
2022/08/13 07:41:21;;;;;;;1999.90;999.90;;;;;;;15.46;100.00;97874.72;4984863;28;20494;-75
2022/08/13 07:43:47;;;;;;;1999.90;999.90;;;;;;;15.56;100.00;97874.41;4989743;28;20034;-75
2022/08/13 07:46:17;;;;;;;1999.90;999.90;;;;;;;15.47;100.00;97870.84;4989930;28;20125;-75
2022/08/13 07:48:49;;;;;;;1999.90;999.90;;;;;;;15.45;100.00;97859.31;4983204;28;20380;-73
2022/08/13 07:51:20;;;;;;;1999.90;999.90;;;;;;;15.48;100.00;97864.19;4980152;28;20126;-76
2022/08/13 07:53:52;;;;;;;1999.90;999.90;;;;;;;15.56;100.00;97874.41;4983029;28;20031;-74
2022/08/13 07:56:21;;;;;;;1999.90;999.90;;;;;;;15.60;100.00;97861.56;4982020;28;20015;-73
2022/08/13 07:58:47;;;;;;;1999.90;999.90;;;;;;;15.56;100.00;97857.88;4982340;28;20046;-73
2022/08/13 08:01:13;;;;;;;1999.90;999.90;;;;;;;15.73;100.00;97841.22;4980354;28;20097;-73
2022/08/13 08:03:42;;;;;;;1999.90;999.90;;;;;;;15.81;100.00;97843.16;4979974;28;20392;-73
2022/08/13 08:06:09;;;;;;;1999.90;999.90;;;;;;;15.88;100.00;97834.38;4980327;28;20690;-73
2022/08/13 08:08:35;;;;;;;1999.90;999.90;;;;;;;15.91;100.00;97839.22;4979737;28;20063;-73
2022/08/13 08:11:01;;;;;;;1999.90;999.90;;;;;;;15.92;100.00;97833.34;4980427;28;20483;-73
2022/08/13 08:13:29;;;;;;;1999.90;999.90;;;;;;;16.01;100.00;97836.06;4975181;28;20031;-73
2022/08/13 08:15:56;;;;;;;1999.90;999.90;;;;;;;15.91;100.00;97840.00;4972335;28;20054;-73
2022/08/13 08:18:22;;;;;;;1999.90;999.90;;;;;;;15.87;100.00;97847.34;4972457;28;20027;-72
2022/08/13 08:20:48;;;;;;;1999.90;999.90;;;;;;;15.79;100.00;97850.13;4972345;28;20130;-73
2022/08/13 08:23:15;;;;;;;1999.90;999.90;;;;;;;15.74;100.00;97836.53;4972170;28;20057;-73
2022/08/13 08:25:41;;;;;;;1999.90;999.90;;;;;;;15.87;100.00;97833.56;4972635;28;20053;-74
2022/08/13 08:28:10;;;;;;;1999.90;999.90;;;;;;;15.92;100.00;97847.16;4972969;28;20503;-74
2022/08/13 08:30:37;;;;;;;1999.90;999.90;;;;;;;16.03;100.00;97853.91;4972607;28;20085;-74
2022/08/13 08:33:04;;;;;;;1999.90;999.90;;;;;;;16.17;100.00;97853.66;4982118;28;20054;-74
2022/08/13 08:35:30;;;;;;;1999.90;999.90;;;;;;;16.17;100.00;97852.84;4981004;28;20081;-75
2022/08/13 08:43:33;;;;;;;1999.90;999.90;;;;;;;16.30;100.00;97833.28;4990725;28;19920;-73
2022/08/13 08:46:03;;;;;;;1999.90;999.90;;;;;;;16.47;100.00;97840.63;4991614;28;20030;-73
2022/08/13 08:48:29;;;;;;;1999.90;999.90;;;;;;;16.45;100.00;97840.16;4992818;28;20077;-73
2022/08/13 08:50:56;;;;;;;1999.90;999.90;;;;;;;16.41;100.00;97830.94;4992767;28;20499;-74
2022/08/13 08:53:23;;;;;;;1999.90;999.90;;;;;;;16.67;100.00;97827.97;4981772;28;20038;-72
2022/08/13 08:55:51;;;;;;;1999.90;999.90;;;;;;;16.69;100.00;97817.41;4987873;28;20035;-72
2022/08/13 08:58:20;;;;;;;1999.90;999.90;;;;;;;16.73;100.00;97821.91;4988696;28;20068;-72
2022/08/13 09:00:48;;;;;;;1999.90;999.90;;;;;;;16.69;100.00;97812.72;4987275;28;20054;-72
2022/08/13 09:03:19;;;;;;;1999.90;999.90;;;;;;;16.73;100.00;97810.09;4986227;28;20113;-71
2022/08/13 09:05:48;;;;;;;1999.90;999.90;;;;;;;16.62;100.00;97809.69;4988690;28;20019;-72
2022/08/13 09:08:17;;;;;;;1999.90;999.90;;;;;;;16.62;100.00;97808.88;4984220;28;20027;-73
2022/08/13 09:10:44;;;;;;;1999.90;999.90;;;;;;;16.41;100.00;97815.16;4998433;28;20027;-73
2022/08/13 09:13:12;;;;;;;1999.90;999.90;;;;;;;16.36;100.00;97820.06;4998289;28;20034;-71
2022/08/13 09:15:39;;;;;;;1999.90;999.90;;;;;;;16.10;100.00;97813.94;5012393;28;20022;-73
2022/08/13 09:18:05;;;;;;;1999.90;999.90;;;;;;;16.12;100.00;97817.16;5000147;28;20101;-73
2022/08/13 09:20:33;;;;;;;1999.90;999.90;;;;;;;16.12;100.00;97822.69;4998880;28;20360;-73
2022/08/13 09:23:07;;;;;;;1999.90;999.90;;;;;;;15.90;100.00;97816.34;4989365;28;20030;-76
2022/08/13 09:25:34;;;;;;;1999.90;999.90;;;;;;;15.85;100.00;97815.72;4990282;28;20181;-76
2022/08/13 09:27:59;;;;;;;1999.90;999.90;;;;;;;15.88;100.00;97806.78;4993073;28;20030;-74
2022/08/13 09:30:25;;;;;;;1999.90;999.90;;;;;;;15.88;100.00;97818.59;4992442;28;20029;-75
2022/08/13 09:32:56;;;;;;;1999.90;999.90;;;;;;;15.89;100.00;97822.97;4989907;28;20038;-75
2022/08/13 09:35:24;;;;;;;1999.90;999.90;;;;;;;16.03;100.00;97820.81;4981457;28;20121;-75
2022/08/13 09:37:50;;;;;;;1999.90;999.90;;;;;;;15.99;100.00;97803.28;4997939;28;20022;-75
2022/08/13 09:40:17;;;;;;;1999.90;999.90;;;;;;;16.13;100.00;97803.06;4988622;28;20026;-73
2022/08/13 09:43:02;;;;;;;1999.90;999.90;;;;;;;16.42;100.00;97805.75;4988797;28;20015;-73
2022/08/13 09:45:30;;;;;;;1999.90;999.90;;;;;;;16.58;100.00;97808.72;4989026;28;20027;-72
2022/08/13 09:47:56;;;;;;;1999.90;999.90;;;;;;;16.46;100.00;97803.13;4985605;28;20034;-73
2022/08/13 09:50:24;;;;;;;1999.90;999.90;;;;;;;16.33;100.00;97805.00;4984806;28;20031;-74
2022/08/13 09:52:52;;;;;;;1999.90;999.90;;;;;;;16.40;100.00;97802.53;4980320;28;20565;-75
2022/08/13 09:55:18;;;;;;;1999.90;999.90;;;;;;;16.27;100.00;97797.25;4979052;28;20487;-73
2022/08/13 09:57:59;;;;;;;1999.90;999.90;;;;;;;16.19;100.00;97806.41;4983595;28;20022;-73
2022/08/13 10:00:27;;;;;;;1999.90;999.90;;;;;;;16.18;100.00;97815.84;4982912;28;20029;-74
2022/08/13 10:02:57;;;;;;;1999.90;999.90;;;;;;;16.24;100.00;97814.50;4980812;28;20447;-71
2022/08/13 10:05:25;;;;;;;1999.90;999.90;;;;;;;16.38;100.00;97810.31;4982973;28;20495;-73
2022/08/13 10:07:51;;;;;;;1999.90;999.90;;;;;;;16.72;100.00;97809.28;4980646;28;20574;-74
2022/08/13 10:10:16;;;;;;;1999.90;999.90;;;;;;;17.05;100.00;97810.06;4976096;28;20027;-74
2022/08/13 10:12:42;;;;;;;1999.90;999.90;;;;;;;17.22;100.00;97805.50;4979288;28;20085;-75
2022/08/13 10:15:10;;;;;;;1999.90;999.90;;;;;;;17.78;100.00;97807.47;4986063;28;20046;-75
2022/08/13 10:18:02;;;;;;;1999.90;999.90;;;;;;;18.11;100.00;97805.34;4995985;28;20396;-75
2022/08/13 10:20:33;;;;;;;1999.90;999.90;;;;;;;18.56;100.00;97799.66;4984419;28;20030;-75
2022/08/13 10:23:01;;;;;;;1999.90;999.90;;;;;;;18.80;100.00;97803.47;4998706;28;20042;-76
2022/08/13 10:25:28;;;;;;;1999.90;999.90;;;;;;;19.13;100.00;97801.25;4999944;28;20041;-76
2022/08/13 10:27:54;;;;;;;1999.90;999.90;;;;;;;19.24;100.00;97803.16;4993779;28;20030;-74
2022/08/13 10:30:23;;;;;;;1999.90;999.90;;;;;;;19.35;100.00;97813.72;4997734;28;20034;-73
2022/08/13 10:32:49;;;;;;;1999.90;999.90;;;;;;;19.14;100.00;97811.16;4987872;28;20023;-74
2022/08/13 10:35:17;;;;;;;1999.90;999.90;;;;;;;18.88;100.00;97811.66;4985161;28;20138;-73
2022/08/13 10:37:47;;;;;;;1999.90;999.90;;;;;;;19.04;100.00;97812.50;4979413;28;20495;-74
2022/08/13 10:40:16;;;;;;;1999.90;999.90;;;;;;;19.45;100.00;97807.69;4983300;28;20108;-73
2022/08/13 10:42:44;;;;;;;1999.90;999.90;;;;;;;19.41;100.00;97809.56;4979789;28;20023;-75
2022/08/13 10:45:12;;;;;;;1999.90;999.90;;;;;;;19.48;100.00;97812.53;4995452;28;20029;-76
2022/08/13 10:47:45;;;;;;;1999.90;999.90;;;;;;;19.71;100.00;97807.94;5012719;28;20034;-75
2022/08/13 10:50:11;;;;;;;1999.90;999.90;;;;;;;20.26;100.00;97821.66;4979567;28;20022;-75
2022/08/13 10:52:37;;;;;;;1999.90;999.90;;;;;;;20.43;100.00;97809.31;4994349;28;20045;-74
2022/08/13 10:55:02;;;;;;;1999.90;999.90;;;;;;;20.77;100.00;97813.22;4988568;28;20035;-74
2022/08/13 10:57:28;;;;;;;1999.90;999.90;;;;;;;20.34;100.00;97821.78;4990021;28;20038;-74
2022/08/13 10:59:53;;;;;;;1999.90;999.90;;;;;;;20.18;100.00;97819.81;4988003;28;20027;-74
2022/08/13 11:02:19;;;;;;;1999.90;999.90;;;;;;;20.03;100.00;97812.31;4993994;28;20034;-70
2022/08/13 11:04:45;;;;;;;1999.90;999.90;;;;;;;19.86;100.00;97804.34;4992235;28;20719;-71
2022/08/13 11:07:11;;;;;;;1999.90;999.90;;;;;;;19.65;100.00;97801.88;4999315;28;20013;-74
2022/08/13 11:09:37;;;;;;;1999.90;999.90;;;;;;;19.64;100.00;97802.25;4991944;28;20041;-71
2022/08/13 11:12:07;;;;;;;1999.90;999.90;;;;;;;19.64;100.00;97793.91;5002853;28;20033;-72